^^
Station Historical Data
Daily Summary for May 6, 2017 Units:  Metric    English   Both
« Previous Day
Next Day »
Daily Weekly Monthly Yearly Custom
  High: Low: Average:
Temperature: 27.2 °C 14.4 °C 19.3 °C
Dew Point: 11.1 °C 7.5 °C 9.4 °C
Humidity: 73% 30% 54%
Wind Speed: 19.5km/h 0km/h 7.1km/h
Wind Gust: 25.7km/h - -
Wind- - SW
Pressure: 1016.1 hPa 1013.1 hPa -
Precipitation: 0 mm    
Historical Graphs
 
 
Tabular Data for May 6, 2017
Time Temperature Dew Point Pressure Wind Wind Speed Wind Gust Humidity Rainfall Rate (Hourly) solar Conditions
00:03 18.9 °C 8.5 °C 1013.1 hPa Calm     51% 0 mm 0.0 W/m2
00:09 18.8 °C 8.4 °C 1013.4 hPa Calm     51% 0 mm 0.0 W/m2
00:15 18.6 °C 8.3 °C 1013.4 hPa Calm     51% 0 mm 0.0 W/m2
00:25 18.5 °C 8.5 °C 1013.4 hPa Calm     52% 0 mm 0.0 W/m2
00:30 18.5 °C 8.5 °C 1013.4 hPa Calm     52% 0 mm 0.0 W/m2
00:35 18.6 °C 8.8 °C 1013.4 hPa Calm     53% 0 mm 0.0 W/m2
00:40 18.6 °C 8.6 °C 1013.4 hPa Calm     52% 0 mm 0.0 W/m2
00:45 18.5 °C 8.7 °C 1013.4 hPa Calm     53% 0 mm 0.0 W/m2
00:51 18.4 °C 8.6 °C 1013.4 hPa Calm     53% 0 mm 0.0 W/m2
00:56 18.3 °C 8.6 °C 1013.4 hPa Calm     53% 0 mm 0.0 W/m2
01:01 18.2 °C 8.7 °C 1013.4 hPa WSW 4.7 km/h 11.3 km/h 54% 0 mm 0.0 W/m2
01:06 18.2 °C 8.7 °C 1013.4 hPa WSW 3.2 km/h 8 km/h 54% 0 mm 0.0 W/m2
01:11 18.3 °C 9.1 °C 1013.4 hPa WSW 4.7 km/h 9.7 km/h 55% 0 mm 0.0 W/m2
01:21 18.4 °C 9.2 °C 1013.4 hPa WSW 7.9 km/h 9.7 km/h 55% 0 mm 0.0 W/m2
01:31 18.2 °C 9.3 °C 1013.4 hPa WSW 6.4 km/h 9.7 km/h 56% 0 mm 0.0 W/m2
01:47 17.9 °C 9.5 °C 1013.4 hPa WSW 4.7 km/h 8 km/h 58% 0 mm 0.0 W/m2
01:52 17.9 °C 9.5 °C 1013.4 hPa WSW 3.2 km/h 6.4 km/h 58% 0 mm 0.0 W/m2
01:57 17.9 °C 9.5 °C 1013.4 hPa Calm   4.8 km/h 58% 0 mm 0.0 W/m2
02:03 17.9 °C 9.5 °C 1013.4 hPa Calm     58% 0 mm 0.0 W/m2
02:08 17.8 °C 9.4 °C 1013.1 hPa Calm     58% 0 mm 0.0 W/m2
02:13 17.6 °C 9.2 °C 1013.1 hPa Calm     58% 0 mm 0.0 W/m2
02:18 17.5 °C 9.1 °C 1013.1 hPa Calm     58% 0 mm 0.0 W/m2
02:23 17.3 °C 9.2 °C 1013.1 hPa Calm     59% 0 mm 0.0 W/m2
02:29 17.2 °C 9.1 °C 1013.1 hPa Calm     59% 0 mm 0.0 W/m2
02:34 17.2 °C 9.4 °C 1013.1 hPa Calm     60% 0 mm 0.0 W/m2
02:39 17.1 °C 9.5 °C 1013.1 hPa Calm     61% 0 mm 0.0 W/m2
02:44 17.2 °C 9.9 °C 1013.1 hPa Calm     62% 0 mm 0.0 W/m2
02:49 17.2 °C 9.9 °C 1013.1 hPa Calm     62% 0 mm 0.0 W/m2
02:55 17.2 °C 9.9 °C 1013.1 hPa Calm     62% 0 mm 0.0 W/m2
03:00 17.3 °C 9.9 °C 1013.1 hPa WSW 7.9 km/h 11.3 km/h 62% 0 mm 0.0 W/m2
03:05 17.3 °C 10.2 °C 1013.1 hPa WSW 6.4 km/h 11.3 km/h 63% 0 mm 0.0 W/m2
03:10 17.2 °C 10.1 °C 1013.1 hPa WSW 7.9 km/h 11.3 km/h 63% 0 mm 0.0 W/m2
03:15 17.2 °C 10.1 °C 1013.1 hPa WSW 9.7 km/h 11.3 km/h 63% 0 mm 0.0 W/m2
03:20 17.1 °C 10.2 °C 1013.1 hPa WSW 7.9 km/h 11.3 km/h 64% 0 mm 0.0 W/m2
03:25 17.1 °C 10.2 °C 1013.1 hPa WSW 6.4 km/h 9.7 km/h 64% 0 mm 0.0 W/m2
03:30 17 °C 10.1 °C 1013.1 hPa WSW 7.9 km/h 9.7 km/h 64% 0 mm 0.0 W/m2
03:35 16.9 °C 10.3 °C 1013.1 hPa WSW 6.4 km/h 9.7 km/h 65% 0 mm 0.0 W/m2
03:40 16.7 °C 10.1 °C 1013.1 hPa WSW 9.7 km/h 9.7 km/h 65% 0 mm 0.0 W/m2
03:45 16.6 °C 10 °C 1013.1 hPa WSW 7.9 km/h 9.7 km/h 65% 0 mm 0.0 W/m2
03:55 16.4 °C 10 °C 1013.1 hPa WSW 4.7 km/h 6.4 km/h 66% 0 mm 0.0 W/m2
04:15 16 °C 9.9 °C 1013.4 hPa WSW 6.4 km/h 8 km/h 67% 0 mm 0.0 W/m2
04:31 15.8 °C 10.1 °C 1013.4 hPa WSW 6.4 km/h 8 km/h 69% 0 mm 0.0 W/m2
04:36 15.8 °C 9.9 °C 1013.4 hPa WSW 6.4 km/h 8 km/h 68% 0 mm 0.0 W/m2
04:41 15.6 °C 9.9 °C 1013.4 hPa WSW 6.4 km/h 9.7 km/h 69% 0 mm 0.0 W/m2
04:51 15.4 °C 9.7 °C 1013.4 hPa WSW 6.4 km/h 8 km/h 69% 0 mm 0.0 W/m2
04:56 15.4 °C 10 °C 1013.4 hPa Calm   6.4 km/h 70% 0 mm 0.0 W/m2
05:01 15.3 °C 9.9 °C 1013.4 hPa WSW 3.2 km/h 4.8 km/h 70% 0 mm 0.0 W/m2
05:11 15.2 °C 9.8 °C 1013.8 hPa WSW 4.7 km/h 6.4 km/h 70% 0 mm 0.0 W/m2
05:26 15.1 °C 9.9 °C 1013.8 hPa WSW 4.7 km/h 6.4 km/h 71% 0 mm 0.0 W/m2
05:36 14.9 °C 9.7 °C 1013.8 hPa WSW 4.7 km/h 4.8 km/h 71% 0 mm 0.0 W/m2
05:41 14.8 °C 9.8 °C 1013.8 hPa WSW 4.7 km/h 4.8 km/h 72% 0 mm 0.0 W/m2
05:47 14.7 °C 9.7 °C 1013.8 hPa WSW 4.7 km/h 6.4 km/h 72% 0 mm 0.0 W/m2
05:52 14.6 °C 9.6 °C 1013.8 hPa WSW 4.7 km/h 6.4 km/h 72% 0 mm 0.0 W/m2
05:57 14.6 °C 9.8 °C 1013.8 hPa WSW 6.4 km/h 6.4 km/h 73% 0 mm 0.0 W/m2
06:24 14.4 °C 9.6 °C 1014.1 hPa WSW 4.7 km/h 6.4 km/h 73% 0 mm 5.0 W/m2
07:39 16.4 °C 10.5 °C 1014.8 hPa WSW 11.1 km/h 11.3 km/h 68% 0 mm 202.0 W/m2
07:55 16.8 °C 10.4 °C 1014.8 hPa WSW 7.9 km/h 11.3 km/h 66% 0 mm 251.0 W/m2
08:10 17.2 °C 10.6 °C 1015.1 hPa WSW 9.7 km/h 14.5 km/h 65% 0 mm 297.0 W/m2
08:24 17.7 °C 10.6 °C 1015.1 hPa WSW 13 km/h 13 km/h 63% 0 mm 345.0 W/m2
08:33 18.1 °C 10.7 °C 1015.5 hPa WSW 13 km/h 13 km/h 62% 0 mm 374.0 W/m2
08:42 18.2 °C 10.8 °C 1015.8 hPa WSW 9.7 km/h 16.1 km/h 62% 0 mm 397.0 W/m2
08:53 18.6 °C 10.9 °C 1015.8 hPa WSW 9.7 km/h 14.5 km/h 61% 0 mm 436.0 W/m2
09:02 18.9 °C 11 °C 1015.8 hPa WSW 13 km/h 16.1 km/h 60% 0 mm 487.0 W/m2
09:10 19.2 °C 11 °C 1016.1 hPa WSW 13 km/h 19.3 km/h 59% 0 mm 387.0 W/m2
09:20 19.6 °C 11.1 °C 1016.1 hPa WSW 14.3 km/h 17.7 km/h 58% 0 mm 443.0 W/m2
09:26 19.8 °C 11 °C 1016.1 hPa WSW 13 km/h 17.7 km/h 57% 0 mm 473.0 W/m2
09:31 20 °C 11 °C 1016.1 hPa WSW 13 km/h 16.1 km/h 56% 0 mm 533.0 W/m2
09:38 20.1 °C 10.8 °C 1016.1 hPa WSW 13 km/h 16.1 km/h 55% 0 mm 564.0 W/m2
09:45 20.6 °C 11 °C 1016.1 hPa WSW 14.3 km/h 14.5 km/h 54% 0 mm 548.0 W/m2
10:06 21.1 °C 10.9 °C 1016.1 hPa WSW 11.1 km/h 12.9 km/h 52% 0 mm 550.0 W/m2
10:15 21.4 °C 11.1 °C 1015.8 hPa WSW 13 km/h 14.5 km/h 52% 0 mm 599.0 W/m2
10:35 22.3 °C 11.1 °C 1015.8 hPa WSW 9.7 km/h 11.3 km/h 49% 0 mm 622.0 W/m2
10:50 22.8 °C 10.9 °C 1015.5 hPa WSW 9.7 km/h 16.1 km/h 47% 0 mm 633.0 W/m2
10:55 23 °C 10.8 °C 1015.5 hPa WSW 11.1 km/h 12.9 km/h 46% 0 mm 636.0 W/m2
11:05 23.6 °C 10.6 °C 1015.5 hPa WSW 11.1 km/h 16.1 km/h 44% 0 mm 684.0 W/m2
11:20 24.2 °C 10.1 °C 1015.1 hPa WSW 13 km/h 14.5 km/h 41% 0 mm 577.0 W/m2
11:41 24.4 °C 9.9 °C 1015.1 hPa WSW 11.1 km/h 11.3 km/h 40% 0 mm 649.0 W/m2
11:51 24.7 °C 9.8 °C 1014.8 hPa WSW 7.9 km/h 14.5 km/h 39% 0 mm 587.0 W/m2
12:06 25.1 °C 9.8 °C 1014.8 hPa Calm     38% 0 mm 717.0 W/m2
12:21 25.4 °C 9.7 °C 1014.4 hPa Calm     37% 0 mm 508.0 W/m2
12:39 25.7 °C 9.5 °C 1014.4 hPa WSW 7.9 km/h 14.5 km/h 36% 0 mm 629.0 W/m2
12:46 25.9 °C 9.3 °C 1014.4 hPa Calm     35% 0 mm 492.0 W/m2
12:57 26.1 °C 8.6 °C 1014.1 hPa Calm     33% 0 mm 621.0 W/m2
13:11 26.2 °C 9.1 °C 1014.1 hPa Calm     34% 0 mm 492.0 W/m2
13:21 26.4 °C 8.4 °C 1013.8 hPa Calm     32% 0 mm 621.0 W/m2
13:33 26.4 °C 8.4 °C 1013.8 hPa Calm     32% 0 mm 540.0 W/m2
13:43 26.8 °C 7.8 °C 1013.8 hPa Calm     30% 0 mm 584.0 W/m2
14:02 26.9 °C 7.9 °C 1013.4 hPa Calm     30% 0 mm 519.0 W/m2
14:13 27.2 °C 8.1 °C 1013.4 hPa WSW 9.7 km/h 9.7 km/h 30% 0 mm 450.0 W/m2
14:20 27.1 °C 8.5 °C 1013.4 hPa WSW 4.7 km/h 17.7 km/h 31% 0 mm 473.0 W/m2
16:00 25.9 °C 8.8 °C 1013.8 hPa WSW 11.1 km/h 19.3 km/h 34% 0 mm 209.0 W/m2
16:10 25.7 °C 9.1 °C 1013.4 hPa WSW 11.1 km/h 17.7 km/h 35% 0 mm 158.0 W/m2
16:20 25.6 °C 9 °C 1013.4 hPa WSW 19.5 km/h 20.9 km/h 35% 0 mm 116.0 W/m2
16:41 25.2 °C 8.6 °C 1013.4 hPa WSW 13 km/h 17.7 km/h 35% 0 mm 69.0 W/m2
16:51 24.8 °C 8.7 °C 1013.8 hPa SW 11.1 km/h 24.1 km/h 36% 0 mm 25.0 W/m2
17:56 22.8 °C 8.9 °C 1014.4 hPa SW 9.7 km/h 16.1 km/h 41% 0 mm 0.0 W/m2
18:16 22.4 °C 9.2 °C 1014.4 hPa SW 13 km/h 16.1 km/h 43% 0 mm 0.0 W/m2
18:26 21.9 °C 9.1 °C 1014.4 hPa SW 16.3 km/h 16.3 km/h 44% 0 mm 0.0 W/m2
18:46 21.5 °C 9.4 °C 1014.8 hPa SW 16.3 km/h 17.7 km/h 46% 0 mm 0.0 W/m2
18:56 21.3 °C 9.5 °C 1014.8 hPa SW 13 km/h 16.1 km/h 47% 0 mm 0.0 W/m2
19:06 20.9 °C 9.5 °C 1015.1 hPa SW 14.3 km/h 17.7 km/h 48% 0 mm 0.0 W/m2
19:21 20.7 °C 9.9 °C 1015.1 hPa SW 11.1 km/h 19.3 km/h 50% 0 mm 0.0 W/m2
19:37 20.3 °C 10.1 °C 1015.1 hPa SW 17.7 km/h 24.1 km/h 52% 0 mm 0.0 W/m2
19:52 20 °C 10.1 °C 1015.5 hPa SW 16.3 km/h 25.7 km/h 53% 0 mm 0.0 W/m2
20:07 19.6 °C 9.8 °C 1015.5 hPa SW 14.3 km/h 17.7 km/h 53% 0 mm 0.0 W/m2
20:28 19.4 °C 9.3 °C 1015.5 hPa SW 13 km/h 16.1 km/h 52% 0 mm 0.0 W/m2
20:43 19.1 °C 8.7 °C 1015.5 hPa SW 11.1 km/h 14.5 km/h 51% 0 mm 0.0 W/m2
20:55 18.8 °C 8.4 °C 1015.8 hPa SW 13 km/h 14.5 km/h 51% 0 mm 0.0 W/m2
21:02 18.7 °C 8.4 °C 1015.8 hPa SW 13 km/h 13 km/h 51% 0 mm 0.0 W/m2
21:07 18.6 °C 8.3 °C 1015.8 hPa SW 11.1 km/h 16.1 km/h 51% 0 mm 0.0 W/m2
21:14 18.4 °C 8.1 °C 1015.8 hPa SW 14.3 km/h 14.5 km/h 51% 0 mm 0.0 W/m2
21:48 17.7 °C 9.1 °C 1015.8 hPa SW 11.1 km/h 11.3 km/h 57% 0 mm 0.0 W/m2
21:53 17.6 °C 9.2 °C 1015.8 hPa SW 11.1 km/h 12.9 km/h 58% 0 mm 0.0 W/m2
21:58 17.6 °C 9.2 °C 1015.8 hPa SW 11.1 km/h 12.9 km/h 58% 0 mm 0.0 W/m2
22:03 17.6 °C 9.2 °C 1015.8 hPa SW 9.7 km/h 12.9 km/h 58% 0 mm 0.0 W/m2
22:08 17.5 °C 9.1 °C 1015.8 hPa SW 7.9 km/h 9.7 km/h 58% 0 mm 0.0 W/m2
22:14 17.4 °C 9.1 °C 1015.8 hPa SW 9.7 km/h 12.9 km/h 58% 0 mm 0.0 W/m2
22:19 17.4 °C 8.8 °C 1015.8 hPa SW 9.7 km/h 17.7 km/h 57% 0 mm 0.0 W/m2
22:29 17.3 °C 8.4 °C 1015.8 hPa SW 7.9 km/h 11.3 km/h 56% 0 mm 0.0 W/m2
22:34 17.2 °C 8.3 °C 1015.8 hPa SW 7.9 km/h 11.3 km/h 56% 0 mm 0.0 W/m2
22:39 17.1 °C 8.3 °C 1015.8 hPa SW 7.9 km/h 9.7 km/h 56% 0 mm 0.0 W/m2
22:44 16.9 °C 8.1 °C 1015.8 hPa SW 7.9 km/h 8 km/h 56% 0 mm 0.0 W/m2
22:49 16.7 °C 7.9 °C 1015.8 hPa SW 7.9 km/h 11.3 km/h 56% 0 mm 0.0 W/m2
22:54 16.7 °C 7.9 °C 1015.8 hPa SW 6.4 km/h 11.3 km/h 56% 0 mm 0.0 W/m2
23:05 16.6 °C 7.8 °C 1015.8 hPa SW 7.9 km/h 9.7 km/h 56% 0 mm 0.0 W/m2
23:55 15.7 °C 7.5 °C 1015.1 hPa SW 4.7 km/h 9.7 km/h 58% 0 mm 0.0 W/m2
Canyon Roadhouse, Fishriver Canyon, Namibia
Compliments of Weather Underground - 2.25 mb